Time;durP1;ratioP1;P1;durP2;ratioP2;P2;SDS_P1;SDS_P2;PMS_P1;PMS_P2;Temp;Humidity;BMP_temperature;BMP_pressure;BME280_temperature;BME280_humidity;BME280_pressure;Samples;Min_cycle;Max_cycle;Signal;HPM_P1;HPM_P2
2022/11/03 00:01:34;;;;;;;3.55;3.35;;;;;;;;;;6306820;22;19907;-75
2022/11/03 00:04:00;;;;;;;4.05;3.85;;;;;;;;;;6306506;22;20015;-77
2022/11/03 00:06:26;;;;;;;3.70;3.50;;;;;;;;;;6254766;22;20521;-76
2022/11/03 00:08:52;;;;;;;3.70;3.50;;;;;;;;;;6306778;22;20015;-75
2022/11/03 00:11:18;;;;;;;4.93;4.63;;;;;;;;;;6279959;22;20007;-76
2022/11/03 00:13:43;;;;;;;6.28;5.88;;;;;;;;;;6280011;22;20068;-75
2022/11/03 00:16:10;;;;;;;3.67;3.47;;;;;;;;;;6267244;22;20014;-76
2022/11/03 00:18:36;;;;;;;4.68;4.38;;;;;;;;;;6323940;22;20011;-76
2022/11/03 00:21:03;;;;;;;6.57;3.65;;;;;;;;;;6294204;22;20427;-75
2022/11/03 00:23:29;;;;;;;4.85;4.55;;;;;;;;;;6294645;22;20038;-76
2022/11/03 00:26:01;;;;;;;3.58;3.38;;;;;;;;;;6269207;22;20045;-76
2022/11/03 00:28:29;;;;;;;3.97;3.78;;;;;;;;;;6317313;22;20018;-76
2022/11/03 00:30:55;;;;;;;3.88;3.67;;;;;;;;;;6331409;22;20034;-76
2022/11/03 00:33:25;;;;;;;4.15;3.95;;;;;;;;;;6331742;22;20011;-76
2022/11/03 00:36:00;;;;;;;4.00;3.80;;;;;;;;;;6304194;22;20007;-76
2022/11/03 00:38:27;;;;;;;3.67;3.47;;;;;;;;;;6299541;22;20006;-75
2022/11/03 00:40:53;;;;;;;3.58;3.38;;;;;;;;;;6324637;22;20024;-76
2022/11/03 00:43:20;;;;;;;3.72;3.53;;;;;;;;;;6325235;22;20018;-76
2022/11/03 00:45:46;;;;;;;3.97;3.60;;;;;;;;;;6324433;22;20023;-75
2022/11/03 00:48:29;;;;;;;4.03;3.80;;;;;;;;;;6298971;22;20053;-76
2022/11/03 00:50:59;;;;;;;5.40;5.10;;;;;;;;;;6277735;22;20026;-76
2022/11/03 00:53:25;;;;;;;4.70;4.40;;;;;;;;;;6273424;22;20015;-74
2022/11/03 00:55:51;;;;;;;5.18;4.88;;;;;;;;;;6313104;22;20523;-77
2022/11/03 00:58:16;;;;;;;6.57;6.18;;;;;;;;;;6303732;22;20015;-76
2022/11/03 01:00:42;;;;;;;5.10;4.80;;;;;;;;;;6276546;22;20102;-75
2022/11/03 01:03:08;;;;;;;5.47;5.05;;;;;;;;;;6303309;22;20014;-76
2022/11/03 01:08:20;;;;;;;3.92;3.63;;;;;;;;;;6255539;22;20098;-76
2022/11/03 01:13:31;;;;;;;7.07;5.63;;;;;;;;;;6303499;22;20060;-75
2022/11/03 01:15:57;;;;;;;5.50;5.13;;;;;;;;;;6304300;22;20015;-76
2022/11/03 01:18:23;;;;;;;4.75;4.45;;;;;;;;;;6304088;22;20034;-77
2022/11/03 01:20:54;;;;;;;5.03;4.72;;;;;;;;;;6303588;22;20064;-76
2022/11/03 01:23:20;;;;;;;5.28;4.88;;;;;;;;;;6277509;22;20019;-76
2022/11/03 01:25:45;;;;;;;4.82;4.43;;;;;;;;;;6277617;22;20470;-76
2022/11/03 01:28:11;;;;;;;5.07;4.75;;;;;;;;;;6277435;22;20007;-76
2022/11/03 01:30:37;;;;;;;5.82;5.43;;;;;;;;;;6304377;22;20021;-76
2022/11/03 01:33:03;;;;;;;5.35;4.95;;;;;;;;;;6277230;22;20011;-77
2022/11/03 01:35:29;;;;;;;4.32;4.05;;;;;;;;;;6277209;22;20011;-77
2022/11/03 01:37:55;;;;;;;4.70;4.40;;;;;;;;;;6276647;22;20042;-78
2022/11/03 01:40:21;;;;;;;4.57;4.28;;;;;;;;;;6276991;22;20648;-76
2022/11/03 01:42:47;;;;;;;6.28;5.78;;;;;;;;;;6304019;22;20018;-78
2022/11/03 01:45:13;;;;;;;6.60;5.50;;;;;;;;;;6276405;22;20019;-77
2022/11/03 01:47:39;;;;;;;5.00;4.57;;;;;;;;;;6304458;22;20011;-78
2022/11/03 01:50:07;;;;;;;5.03;4.63;;;;;;;;;;6303952;22;20011;-77
2022/11/03 01:52:36;;;;;;;6.05;5.55;;;;;;;;;;6305185;22;20011;-76
2022/11/03 01:55:12;;;;;;;5.07;4.72;;;;;;;;;;6277153;22;20060;-77
2022/11/03 01:57:40;;;;;;;4.40;4.10;;;;;;;;;;6252716;22;20019;-78
2022/11/03 02:00:06;;;;;;;4.80;4.50;;;;;;;;;;6305490;22;20027;-79
2022/11/03 02:02:38;;;;;;;6.05;5.63;;;;;;;;;;6307194;22;20007;-78
2022/11/03 02:05:04;;;;;;;5.53;5.18;;;;;;;;;;6304428;22;20483;-78
2022/11/03 02:07:32;;;;;;;5.45;4.72;;;;;;;;;;6278634;22;20047;-78
2022/11/03 02:09:59;;;;;;;4.72;4.43;;;;;;;;;;6280119;22;20019;-78
2022/11/03 02:12:24;;;;;;;5.38;5.07;;;;;;;;;;6289989;22;20562;-78
2022/11/03 02:14:52;;;;;;;3.67;3.47;;;;;;;;;;6270216;22;19995;-77
2022/11/03 02:17:18;;;;;;;5.38;4.97;;;;;;;;;;6277845;22;20015;-77
2022/11/03 02:19:44;;;;;;;4.72;4.43;;;;;;;;;;6329048;22;20007;-77
2022/11/03 02:22:18;;;;;;;3.78;3.58;;;;;;;;;;6288554;22;20371;-79
2022/11/03 02:24:48;;;;;;;4.15;3.90;;;;;;;;;;6274937;22;20015;-78
2022/11/03 02:27:14;;;;;;;5.28;4.97;;;;;;;;;;6249725;22;20094;-77
2022/11/03 02:29:39;;;;;;;4.80;4.40;;;;;;;;;;6249865;22;20510;-78
2022/11/03 02:32:19;;;;;;;3.50;3.30;;;;;;;;;;6275033;22;20098;-78
2022/11/03 02:35:08;;;;;;;4.47;4.07;;;;;;;;;;6275808;22;20015;-77
2022/11/03 02:37:39;;;;;;;4.53;4.32;;;;;;;;;;6286549;22;20019;-77
2022/11/03 02:40:04;;;;;;;3.80;3.55;;;;;;;;;;6302061;22;20373;-77
2022/11/03 02:42:30;;;;;;;3.63;3.42;;;;;;;;;;6302454;22;20018;-76
2022/11/03 02:44:56;;;;;;;3.00;2.80;;;;;;;;;;6302087;22;20015;-78
2022/11/03 02:47:23;;;;;;;5.00;4.70;;;;;;;;;;6274935;22;20097;-76
2022/11/03 02:49:49;;;;;;;7.40;4.95;;;;;;;;;;6302016;22;20070;-77
2022/11/03 02:52:35;;;;;;;5.03;4.70;;;;;;;;;;6302058;22;20022;-77
2022/11/03 02:55:15;;;;;;;6.32;5.93;;;;;;;;;;6301754;22;20077;-77
2022/11/03 02:58:08;;;;;;;4.20;3.90;;;;;;;;;;6274916;22;20018;-77
2022/11/03 03:00:36;;;;;;;6.35;5.93;;;;;;;;;;6254522;22;20023;-77
2022/11/03 03:03:04;;;;;;;5.13;4.72;;;;;;;;;;6274319;22;20018;-78
2022/11/03 03:05:30;;;;;;;7.28;6.78;;;;;;;;;;6275270;22;20038;-78
2022/11/03 03:07:57;;;;;;;6.35;5.88;;;;;;;;;;6275095;22;20018;-77
2022/11/03 03:10:23;;;;;;;4.10;3.80;;;;;;;;;;6274795;22;20015;-78
2022/11/03 03:12:51;;;;;;;6.35;5.85;;;;;;;;;;6275012;22;20014;-75
2022/11/03 03:15:17;;;;;;;6.18;5.68;;;;;;;;;;6274768;22;20046;-76
2022/11/03 03:17:51;;;;;;;5.50;5.10;;;;;;;;;;6249598;22;20011;-75
2022/11/03 03:20:19;;;;;;;5.13;4.80;;;;;;;;;;6275002;22;20100;-74
2022/11/03 03:22:51;;;;;;;4.25;3.92;;;;;;;;;;6302527;22;20019;-74
2022/11/03 03:25:21;;;;;;;7.35;6.18;;;;;;;;;;6274423;22;20033;-74
2022/11/03 03:27:48;;;;;;;8.50;6.20;;;;;;;;;;6302475;22;20018;-74
2022/11/03 03:30:14;;;;;;;6.32;5.78;;;;;;;;;;6249207;22;20019;-74
2022/11/03 03:32:42;;;;;;;5.82;5.43;;;;;;;;;;6302365;22;20022;-75
2022/11/03 03:35:09;;;;;;;5.85;5.32;;;;;;;;;;6301858;22;20517;-75
2022/11/03 03:37:36;;;;;;;8.13;7.28;;;;;;;;;;6249601;22;20021;-75
2022/11/03 03:40:02;;;;;;;3.92;3.60;;;;;;;;;;6248639;22;20101;-75
2022/11/03 03:42:29;;;;;;;5.65;5.25;;;;;;;;;;6274592;22;20015;-75
2022/11/03 03:44:55;;;;;;;6.07;5.68;;;;;;;;;;6248552;22;20016;-74
2022/11/03 03:47:26;;;;;;;6.47;6.05;;;;;;;;;;6301847;22;20042;-74
2022/11/03 03:49:52;;;;;;;;;;;;;;;;;;6275413;22;20018;-74
2022/11/03 03:52:18;;;;;;;4.72;4.32;;;;;;;;;;6249387;22;19907;-74
2022/11/03 03:54:44;;;;;;;6.45;6.05;;;;;;;;;;6274683;22;20007;-75
2022/11/03 03:57:16;;;;;;;6.63;5.68;;;;;;;;;;6301453;22;20192;-75
2022/11/03 03:59:42;;;;;;;7.53;7.03;;;;;;;;;;6301780;22;20042;-75
2022/11/03 04:02:08;;;;;;;5.63;5.22;;;;;;;;;;6301361;22;20015;-74
2022/11/03 04:04:34;;;;;;;7.05;6.55;;;;;;;;;;6274664;22;20073;-75
2022/11/03 04:09:48;;;;;;;5.63;5.22;;;;;;;;;;6257868;22;20018;-75
2022/11/03 04:23:14;;;;;;;5.20;4.88;;;;;;;;;;6303913;22;20011;-74
2022/11/03 04:25:40;;;;;;;5.13;4.82;;;;;;;;;;6276507;22;20046;-76
2022/11/03 04:28:07;;;;;;;5.30;5.00;;;;;;;;;;6250523;22;20102;-75
2022/11/03 04:30:33;;;;;;;3.75;3.45;;;;;;;;;;6303293;22;20022;-75
2022/11/03 04:32:59;;;;;;;6.03;5.63;;;;;;;;;;6276381;22;20008;-76
2022/11/03 04:35:26;;;;;;;3.88;3.67;;;;;;;;;;6276183;22;20015;-76
2022/11/03 04:38:00;;;;;;;5.82;5.43;;;;;;;;;;6225717;22;20019;-76
2022/11/03 04:40:26;;;;;;;5.03;4.72;;;;;;;;;;6303450;22;20046;-76
2022/11/03 04:42:52;;;;;;;6.20;5.80;;;;;;;;;;6276282;22;20011;-75
2022/11/03 04:45:17;;;;;;;5.50;5.10;;;;;;;;;;6303126;22;20069;-75
2022/11/03 04:47:43;;;;;;;4.93;4.63;;;;;;;;;;6303301;22;20015;-75
2022/11/03 04:50:14;;;;;;;3.55;3.35;;;;;;;;;;6275779;22;20045;-75
2022/11/03 04:52:40;;;;;;;4.88;4.57;;;;;;;;;;6276397;22;20027;-76
2022/11/03 04:55:08;;;;;;;4.25;4.03;;;;;;;;;;6275598;22;20456;-75
2022/11/03 04:57:34;;;;;;;4.22;3.92;;;;;;;;;;6303377;22;20084;-75
2022/11/03 05:00:00;;;;;;;4.38;3.97;;;;;;;;;;6302953;22;20023;-75
2022/11/03 05:02:26;;;;;;;9.57;5.47;;;;;;;;;;6302993;22;20011;-76
2022/11/03 05:04:52;;;;;;;4.90;4.38;;;;;;;;;;6225014;22;20026;-75
2022/11/03 05:07:22;;;;;;;3.75;3.55;;;;;;;;;;6302915;22;20015;-76
2022/11/03 05:09:47;;;;;;;5.22;4.82;;;;;;;;;;6303048;22;20011;-76
2022/11/03 05:12:13;;;;;;;6.78;3.78;;;;;;;;;;6303175;22;20056;-75
2022/11/03 05:14:39;;;;;;;4.30;4.00;;;;;;;;;;6303941;22;20460;-76
2022/11/03 05:17:17;;;;;;;5.40;5.03;;;;;;;;;;6303207;22;20524;-76
2022/11/03 05:19:43;;;;;;;4.22;4.03;;;;;;;;;;6303807;22;20061;-76
2022/11/03 05:22:12;;;;;;;4.53;4.22;;;;;;;;;;6303591;22;20015;-76
2022/11/03 05:24:37;;;;;;;4.80;4.50;;;;;;;;;;6275964;22;20026;-75
2022/11/03 05:27:04;;;;;;;5.90;5.40;;;;;;;;;;6276235;22;20094;-76
2022/11/03 05:29:30;;;;;;;4.90;4.47;;;;;;;;;;6276079;22;20034;-76
2022/11/03 05:31:56;;;;;;;7.43;6.82;;;;;;;;;;6275745;22;20026;-75
2022/11/03 05:34:30;;;;;;;6.13;5.63;;;;;;;;;;6303042;22;20362;-76
2022/11/03 05:36:57;;;;;;;5.32;4.68;;;;;;;;;;6302867;22;20105;-76
2022/11/03 05:39:23;;;;;;;6.82;5.88;;;;;;;;;;6276057;22;20011;-76
2022/11/03 05:41:49;;;;;;;6.07;5.47;;;;;;;;;;6302844;22;20014;-76
2022/11/03 05:44:15;;;;;;;5.60;5.20;;;;;;;;;;6302716;22;20015;-76
2022/11/03 05:46:41;;;;;;;6.50;5.90;;;;;;;;;;6275554;22;20021;-75
2022/11/03 05:49:08;;;;;;;6.57;6.07;;;;;;;;;;6249096;22;20616;-73
2022/11/03 05:51:36;;;;;;;8.07;5.53;;;;;;;;;;6274674;22;20011;-73
2022/11/03 05:54:02;;;;;;;6.97;6.38;;;;;;;;;;6275251;22;20463;-71
2022/11/03 05:56:29;;;;;;;4.65;4.00;;;;;;;;;;6249740;22;20011;-73
2022/11/03 05:58:56;;;;;;;4.95;4.65;;;;;;;;;;6249968;22;20026;-73
2022/11/03 06:01:21;;;;;;;5.13;4.72;;;;;;;;;;6274757;22;20015;-73
2022/11/03 06:03:47;;;;;;;3.30;3.10;;;;;;;;;;6297224;22;20007;-75
2022/11/03 06:06:20;;;;;;;3.58;2.67;;;;;;;;;;6300639;22;20929;-74
2022/11/03 06:08:46;;;;;;;4.40;4.10;;;;;;;;;;6248512;22;20019;-74
2022/11/03 06:11:18;;;;;;;5.80;5.30;;;;;;;;;;6300822;22;20402;-75
2022/11/03 06:13:44;;;;;;;5.43;5.03;;;;;;;;;;6247782;22;20448;-76
2022/11/03 06:16:19;;;;;;;4.57;4.28;;;;;;;;;;6300558;22;20019;-75
2022/11/03 06:18:45;;;;;;;6.15;4.00;;;;;;;;;;6273652;22;20011;-75
2022/11/03 06:21:12;;;;;;;6.25;4.40;;;;;;;;;;6299829;22;20077;-75
2022/11/03 06:23:39;;;;;;;6.30;5.80;;;;;;;;;;6220285;22;20014;-75
2022/11/03 06:26:08;;;;;;;5.07;4.68;;;;;;;;;;6272331;22;20046;-74
2022/11/03 06:28:35;;;;;;;9.05;4.97;;;;;;;;;;6273364;22;20011;-74
2022/11/03 06:31:03;;;;;;;5.03;4.53;;;;;;;;;;6301084;22;20015;-75
2022/11/03 06:33:32;;;;;;;5.60;4.45;;;;;;;;;;6300991;22;20742;-74
2022/11/03 06:36:00;;;;;;;5.32;4.65;;;;;;;;;;6300540;22;20018;-75
2022/11/03 06:38:26;;;;;;;3.50;3.30;;;;;;;;;;6273642;22;20015;-75
2022/11/03 06:40:52;;;;;;;8.05;5.38;;;;;;;;;;6300982;22;20082;-80
2022/11/03 06:43:19;;;;;;;6.70;5.10;;;;;;;;;;6273533;22;20092;-76
2022/11/03 06:45:47;;;;;;;7.15;6.18;;;;;;;;;;6273653;22;20019;-75
2022/11/03 06:48:13;;;;;;;6.38;4.53;;;;;;;;;;6273567;22;20035;-75
2022/11/03 06:50:39;;;;;;;3.08;2.85;;;;;;;;;;6301010;22;20046;-74
2022/11/03 06:53:07;;;;;;;4.97;4.57;;;;;;;;;;6273247;22;20082;-76
2022/11/03 06:55:33;;;;;;;4.75;4.35;;;;;;;;;;6247583;22;20026;-73
2022/11/03 06:58:17;;;;;;;8.43;5.53;;;;;;;;;;6300972;22;20086;-75
2022/11/03 07:00:44;;;;;;;5.07;4.78;;;;;;;;;;6301487;22;20019;-75
2022/11/03 07:03:09;;;;;;;5.43;4.93;;;;;;;;;;6275395;22;20027;-75
2022/11/03 07:05:36;;;;;;;6.47;6.03;;;;;;;;;;6300938;22;20026;-74
2022/11/03 07:08:02;;;;;;;5.85;4.57;;;;;;;;;;6301360;22;20011;-75
2022/11/03 07:10:30;;;;;;;5.47;4.97;;;;;;;;;;6273568;22;20374;-74
2022/11/03 07:12:55;;;;;;;5.60;4.65;;;;;;;;;;6301636;22;20010;-75
2022/11/03 07:15:23;;;;;;;5.97;5.47;;;;;;;;;;6273830;22;20418;-73
2022/11/03 07:17:48;;;;;;;7.53;5.63;;;;;;;;;;6273747;22;20016;-75
2022/11/03 07:20:15;;;;;;;8.55;5.53;;;;;;;;;;6300736;22;20138;-75
2022/11/03 07:22:41;;;;;;;5.88;5.47;;;;;;;;;;6301476;22;20014;-74
2022/11/03 07:25:18;;;;;;;4.97;4.65;;;;;;;;;;6306502;22;20348;-74
2022/11/03 07:27:44;;;;;;;7.75;6.40;;;;;;;;;;6292567;22;20021;-75
2022/11/03 07:30:14;;;;;;;13.98;6.03;;;;;;;;;;6321973;22;20007;-75
2022/11/03 07:32:40;;;;;;;7.93;7.32;;;;;;;;;;6321469;22;20070;-75
2022/11/03 07:35:15;;;;;;;7.95;6.35;;;;;;;;;;6294458;22;20065;-75
2022/11/03 07:37:42;;;;;;;7.25;6.65;;;;;;;;;;6319194;22;20015;-74
2022/11/03 07:40:11;;;;;;;7.18;3.40;;;;;;;;;;6317046;22;20059;-74
2022/11/03 07:42:37;;;;;;;8.13;7.53;;;;;;;;;;6318917;22;20010;-74
2022/11/03 07:45:23;;;;;;;6.43;5.82;;;;;;;;;;6316191;22;20023;-75
2022/11/03 07:47:49;;;;;;;7.90;5.20;;;;;;;;;;6311841;22;20007;-75
2022/11/03 07:50:15;;;;;;;7.15;6.43;;;;;;;;;;6275862;22;20007;-74
2022/11/03 07:52:41;;;;;;;12.27;7.45;;;;;;;;;;6275932;22;20069;-74
2022/11/03 07:55:08;;;;;;;6.20;5.60;;;;;;;;;;6275996;22;20522;-74
2022/11/03 07:57:34;;;;;;;6.95;6.32;;;;;;;;;;6275064;22;20725;-74
2022/11/03 08:00:04;;;;;;;7.00;4.35;;;;;;;;;;6275082;22;20062;-75
2022/11/03 08:02:50;;;;;;;7.25;6.65;;;;;;;;;;6302633;22;20011;-74
2022/11/03 08:05:16;;;;;;;6.30;5.40;;;;;;;;;;6302483;22;20140;-75
2022/11/03 08:07:43;;;;;;;5.25;4.85;;;;;;;;;;6273962;22;20022;-75
2022/11/03 08:10:09;;;;;;;5.40;5.03;;;;;;;;;;6302677;22;20015;-74
2022/11/03 08:12:35;;;;;;;7.28;5.93;;;;;;;;;;6275112;22;20550;-74
2022/11/03 08:15:01;;;;;;;5.47;5.07;;;;;;;;;;6249646;22;20019;-73
2022/11/03 08:17:28;;;;;;;5.75;5.35;;;;;;;;;;6302173;22;20015;-73
2022/11/03 08:19:54;;;;;;;5.97;5.53;;;;;;;;;;6275107;22;20064;-74
2022/11/03 08:22:21;;;;;;;6.25;5.65;;;;;;;;;;6249632;22;20015;-75
2022/11/03 08:24:47;;;;;;;5.20;4.80;;;;;;;;;;6302747;22;20015;-75
2022/11/03 08:27:13;;;;;;;5.57;5.22;;;;;;;;;;6302384;22;20015;-74
2022/11/03 08:29:38;;;;;;;7.18;6.68;;;;;;;;;;6302878;22;20089;-74
2022/11/03 08:32:04;;;;;;;6.70;6.10;;;;;;;;;;6302165;22;20014;-74
2022/11/03 08:34:30;;;;;;;5.10;4.80;;;;;;;;;;6274782;22;20098;-75
2022/11/03 08:36:57;;;;;;;5.53;5.13;;;;;;;;;;6249732;22;20094;-73
2022/11/03 08:39:23;;;;;;;4.95;4.55;;;;;;;;;;6302163;22;20015;-75
2022/11/03 08:41:49;;;;;;;3.58;3.38;;;;;;;;;;6302129;22;20065;-75
2022/11/03 08:44:14;;;;;;;4.82;4.43;;;;;;;;;;6302059;22;20034;-74
2022/11/03 08:46:41;;;;;;;4.05;3.80;;;;;;;;;;6303515;22;20046;-75
2022/11/03 08:49:06;;;;;;;3.25;2.72;;;;;;;;;;6303016;22;20039;-75
2022/11/03 08:51:33;;;;;;;9.05;3.72;;;;;;;;;;6274595;22;20455;-74
2022/11/03 08:54:00;;;;;;;3.60;3.20;;;;;;;;;;6274812;22;20041;-75
2022/11/03 08:56:26;;;;;;;4.55;4.25;;;;;;;;;;6274610;22;20090;-75
2022/11/03 08:58:52;;;;;;;5.75;4.65;;;;;;;;;;6274986;22;20023;-74
2022/11/03 09:01:19;;;;;;;5.68;3.92;;;;;;;;;;6301383;22;20011;-73
2022/11/03 09:03:47;;;;;;;4.22;3.92;;;;;;;;;;6302122;22;20034;-73
2022/11/03 09:06:13;;;;;;;4.82;3.83;;;;;;;;;;6275025;22;20554;-75
2022/11/03 09:08:40;;;;;;;5.75;4.82;;;;;;;;;;6249638;22;20011;-74
2022/11/03 09:11:06;;;;;;;4.10;3.80;;;;;;;;;;6273229;22;20359;-74
2022/11/03 09:13:32;;;;;;;5.93;4.72;;;;;;;;;;6273828;22;20336;-74
2022/11/03 09:15:59;;;;;;;6.03;4.50;;;;;;;;;;6301442;22;20014;-73
2022/11/03 09:18:26;;;;;;;6.10;4.68;;;;;;;;;;6301648;22;20011;-74
2022/11/03 09:20:53;;;;;;;4.70;4.10;;;;;;;;;;6301654;22;20414;-74
2022/11/03 09:23:19;;;;;;;4.97;4.20;;;;;;;;;;6274052;22;20018;-73
2022/11/03 09:25:45;;;;;;;4.80;4.40;;;;;;;;;;6274041;22;20023;-74
2022/11/03 09:28:12;;;;;;;3.50;3.30;;;;;;;;;;6274305;22;20462;-74
2022/11/03 09:30:38;;;;;;;3.83;3.63;;;;;;;;;;6274343;22;20011;-74
2022/11/03 09:33:05;;;;;;;3.53;3.33;;;;;;;;;;6301305;22;20046;-75
2022/11/03 09:35:32;;;;;;;4.38;3.75;;;;;;;;;;6274834;22;20019;-75
2022/11/03 09:37:59;;;;;;;5.90;4.53;;;;;;;;;;6249156;22;20011;-75
2022/11/03 09:40:25;;;;;;;4.55;4.28;;;;;;;;;;6301502;22;20020;-75
2022/11/03 09:42:53;;;;;;;5.00;4.35;;;;;;;;;;6301962;22;20022;-75
2022/11/03 09:45:19;;;;;;;11.57;4.72;;;;;;;;;;6302056;22;20077;-75
2022/11/03 09:47:46;;;;;;;10.05;6.43;;;;;;;;;;6302031;22;20007;-75
2022/11/03 09:50:12;;;;;;;8.63;4.85;;;;;;;;;;6301438;22;20042;-75
2022/11/03 09:52:39;;;;;;;4.93;4.22;;;;;;;;;;6301173;22;20447;-74
2022/11/03 09:55:14;;;;;;;4.38;4.13;;;;;;;;;;6301090;22;20323;-76
2022/11/03 09:57:41;;;;;;;5.50;5.00;;;;;;;;;;6300921;22;20025;-76
2022/11/03 10:00:28;;;;;;;5.28;4.68;;;;;;;;;;6300667;22;20368;-76
2022/11/03 10:02:56;;;;;;;14.63;4.88;;;;;;;;;;6274063;22;20521;-73
2022/11/03 10:05:23;;;;;;;6.32;4.88;;;;;;;;;;6274256;22;20125;-73
2022/11/03 10:07:50;;;;;;;4.85;4.45;;;;;;;;;;6248104;22;20570;-74
2022/11/03 10:10:18;;;;;;;4.65;4.25;;;;;;;;;;6300357;22;20094;-73
2022/11/03 10:12:44;;;;;;;4.70;4.40;;;;;;;;;;6300970;22;20124;-73
2022/11/03 10:15:12;;;;;;;4.30;4.00;;;;;;;;;;6301129;22;20014;-73
2022/11/03 10:17:39;;;;;;;8.65;4.80;;;;;;;;;;6301783;22;20011;-72
2022/11/03 10:20:05;;;;;;;4.90;4.55;;;;;;;;;;6273321;22;20460;-73
2022/11/03 10:22:30;;;;;;;4.28;3.80;;;;;;;;;;6273829;22;20019;-75
2022/11/03 10:25:15;;;;;;;7.07;2.97;;;;;;;;;;6273732;22;20015;-73
2022/11/03 10:27:41;;;;;;;5.07;4.57;;;;;;;;;;6301335;22;20011;-73
2022/11/03 10:30:08;;;;;;;6.50;4.18;;;;;;;;;;6273865;22;20454;-73
2022/11/03 10:32:34;;;;;;;6.38;5.00;;;;;;;;;;6300865;22;20090;-73
2022/11/03 10:35:02;;;;;;;4.28;3.97;;;;;;;;;;6300996;22;20016;-74
2022/11/03 10:37:28;;;;;;;7.40;5.15;;;;;;;;;;6272733;22;20364;-74
2022/11/03 10:39:55;;;;;;;4.72;3.97;;;;;;;;;;6273372;22;20011;-73
2022/11/03 10:42:30;;;;;;;6.30;4.10;;;;;;;;;;6273671;22;20022;-73
2022/11/03 10:45:13;;;;;;;8.18;4.38;;;;;;;;;;6300879;22;20420;-73
2022/11/03 10:47:38;;;;;;;7.30;4.55;;;;;;;;;;6273142;22;20011;-73
2022/11/03 10:50:19;;;;;;;5.18;4.72;;;;;;;;;;6300696;22;20042;-74
2022/11/03 10:52:45;;;;;;;5.13;4.65;;;;;;;;;;6300619;22;20098;-73
2022/11/03 10:55:10;;;;;;;4.40;3.70;;;;;;;;;;6300943;22;20388;-72
2022/11/03 10:57:37;;;;;;;7.60;4.70;;;;;;;;;;6273845;22;20035;-73
2022/11/03 11:00:04;;;;;;;6.28;4.18;;;;;;;;;;6300828;22;20030;-73
2022/11/03 11:02:30;;;;;;;6.45;4.10;;;;;;;;;;6273158;22;20058;-73
2022/11/03 11:04:58;;;;;;;10.35;5.28;;;;;;;;;;6272581;22;20076;-73
2022/11/03 11:07:25;;;;;;;4.75;4.35;;;;;;;;;;6246406;22;20352;-73
2022/11/03 11:09:52;;;;;;;7.10;4.20;;;;;;;;;;6247902;22;20019;-72
2022/11/03 11:12:21;;;;;;;7.72;5.32;;;;;;;;;;6273014;22;20042;-73
2022/11/03 11:14:55;;;;;;;5.15;4.70;;;;;;;;;;6273505;22;20355;-76
2022/11/03 11:17:36;;;;;;;9.23;5.03;;;;;;;;;;6273358;22;20011;-74
2022/11/03 11:20:21;;;;;;;3.80;3.60;;;;;;;;;;6273372;22;20043;-74
2022/11/03 11:22:47;;;;;;;4.70;4.22;;;;;;;;;;6273028;22;20023;-74
2022/11/03 11:25:13;;;;;;;6.65;4.60;;;;;;;;;;6273426;22;20399;-74
2022/11/03 11:27:45;;;;;;;4.65;3.88;;;;;;;;;;6272789;22;20011;-74
2022/11/03 11:30:17;;;;;;;4.95;4.40;;;;;;;;;;6300166;22;20026;-74
2022/11/03 11:32:48;;;;;;;5.53;4.35;;;;;;;;;;6300759;22;20463;-73
2022/11/03 11:35:14;;;;;;;5.25;4.90;;;;;;;;;;6300283;22;20014;-73
2022/11/03 11:37:40;;;;;;;6.60;4.88;;;;;;;;;;6299780;22;20011;-74
2022/11/03 11:40:26;;;;;;;5.85;5.35;;;;;;;;;;6272722;22;20493;-75
2022/11/03 11:43:01;;;;;;;7.70;4.43;;;;;;;;;;6278480;22;20015;-75
2022/11/03 11:45:46;;;;;;;6.75;4.70;;;;;;;;;;6273175;22;20019;-75
2022/11/03 11:48:15;;;;;;;7.20;6.60;;;;;;;;;;6301601;22;20352;-74
2022/11/03 11:50:41;;;;;;;6.80;6.32;;;;;;;;;;6273183;22;20061;-75
2022/11/03 11:53:11;;;;;;;6.88;6.47;;;;;;;;;;6300800;22;20015;-75
2022/11/03 11:55:47;;;;;;;8.20;7.60;;;;;;;;;;6249330;22;20011;-74
2022/11/03 11:58:18;;;;;;;8.18;7.57;;;;;;;;;;6274423;22;20018;-75
2022/11/03 12:00:58;;;;;;;8.95;8.02;;;;;;;;;;6275107;22;20364;-74
2022/11/03 12:03:25;;;;;;;9.23;8.48;;;;;;;;;;6273683;22;20038;-75
2022/11/03 12:05:51;;;;;;;8.38;7.57;;;;;;;;;;6298927;22;20027;-75
2022/11/03 12:08:17;;;;;;;11.10;8.27;;;;;;;;;;6274009;22;20566;-75
2022/11/03 12:10:52;;;;;;;9.40;7.90;;;;;;;;;;6302009;22;20015;-76
2022/11/03 12:13:38;;;;;;;11.52;9.38;;;;;;;;;;6248633;22;20039;-76
2022/11/03 12:16:04;;;;;;;10.05;9.25;;;;;;;;;;6253738;22;20016;-75
2022/11/03 12:18:31;;;;;;;9.60;7.28;;;;;;;;;;6223191;22;20430;-76
2022/11/03 12:20:57;;;;;;;7.65;7.03;;;;;;;;;;6301864;22;20055;-76
2022/11/03 12:23:36;;;;;;;9.93;8.93;;;;;;;;;;6275529;22;20042;-76
2022/11/03 12:26:03;;;;;;;8.82;8.18;;;;;;;;;;6274505;22;20140;-77
2022/11/03 12:28:29;;;;;;;6.78;6.28;;;;;;;;;;6274597;22;20033;-76
2022/11/03 12:30:55;;;;;;;7.43;6.00;;;;;;;;;;6249780;22;20082;-76
2022/11/03 12:33:21;;;;;;;6.47;5.97;;;;;;;;;;6273828;22;20015;-77
2022/11/03 12:35:47;;;;;;;5.95;5.47;;;;;;;;;;6250408;22;20015;-76
2022/11/03 12:38:13;;;;;;;6.72;6.22;;;;;;;;;;6303660;22;20007;-77
2022/11/03 12:40:39;;;;;;;5.70;4.88;;;;;;;;;;6276790;22;20077;-77
2022/11/03 12:43:05;;;;;;;5.75;5.35;;;;;;;;;;6303504;22;20041;-77
2022/11/03 12:45:31;;;;;;;7.03;5.80;;;;;;;;;;6303586;22;20027;-74
2022/11/03 12:47:57;;;;;;;4.18;3.88;;;;;;;;;;6302918;22;20068;-76
2022/11/03 12:50:23;;;;;;;3.97;3.78;;;;;;;;;;6302802;22;20015;-75
2022/11/03 12:52:49;;;;;;;6.35;5.85;;;;;;;;;;6250540;22;20014;-76
2022/11/03 12:55:15;;;;;;;7.32;5.80;;;;;;;;;;6276339;22;20041;-76
2022/11/03 12:57:44;;;;;;;7.97;5.40;;;;;;;;;;6302977;22;20494;-76
2022/11/03 13:00:11;;;;;;;7.45;6.38;;;;;;;;;;6275591;22;20371;-76
2022/11/03 13:02:37;;;;;;;4.25;3.85;;;;;;;;;;6275795;22;20011;-75
2022/11/03 13:05:04;;;;;;;8.85;5.00;;;;;;;;;;6224713;22;20481;-75
2022/11/03 13:07:30;;;;;;;6.68;5.95;;;;;;;;;;6302944;22;20337;-75
2022/11/03 13:09:55;;;;;;;6.22;5.00;;;;;;;;;;6303573;22;20015;-74
2022/11/03 13:12:30;;;;;;;6.60;4.22;;;;;;;;;;6302867;22;20042;-75
2022/11/03 13:14:57;;;;;;;4.75;4.25;;;;;;;;;;6303379;22;20007;-76
2022/11/03 13:17:23;;;;;;;3.60;3.30;;;;;;;;;;6250296;22;20136;-76
2022/11/03 13:19:49;;;;;;;7.30;3.88;;;;;;;;;;6276710;22;20018;-76
2022/11/03 13:22:15;;;;;;;3.90;3.65;;;;;;;;;;6278414;22;20401;-76
2022/11/03 13:24:41;;;;;;;4.40;3.92;;;;;;;;;;6254153;22;20742;-77
2022/11/03 13:27:07;;;;;;;6.35;5.43;;;;;;;;;;6279676;22;20061;-75
2022/11/03 13:29:33;;;;;;;8.07;4.07;;;;;;;;;;6306832;22;20015;-75
2022/11/03 13:31:59;;;;;;;9.20;7.28;;;;;;;;;;6280290;22;20018;-76
2022/11/03 13:34:25;;;;;;;6.45;5.80;;;;;;;;;;6254375;22;20018;-76
2022/11/03 13:36:51;;;;;;;11.43;4.90;;;;;;;;;;6308026;22;20094;-75
2022/11/03 13:39:17;;;;;;;5.07;4.72;;;;;;;;;;6306943;22;20014;-77
2022/11/03 13:41:43;;;;;;;7.13;3.75;;;;;;;;;;6279714;22;20034;-74
2022/11/03 13:44:09;;;;;;;3.63;3.33;;;;;;;;;;6275870;22;20011;-74
2022/11/03 13:46:35;;;;;;;4.60;4.10;;;;;;;;;;6305768;22;20030;-74
2022/11/03 13:49:01;;;;;;;4.13;3.83;;;;;;;;;;6249601;22;20023;-76
2022/11/03 13:51:27;;;;;;;4.45;4.15;;;;;;;;;;6304925;22;20015;-76
2022/11/03 13:53:53;;;;;;;4.97;4.28;;;;;;;;;;6275644;22;20018;-76
2022/11/03 13:56:19;;;;;;;2.65;2.50;;;;;;;;;;6301655;22;20036;-75
2022/11/03 13:58:45;;;;;;;3.17;2.92;;;;;;;;;;6273350;22;20162;-74
2022/11/03 14:01:11;;;;;;;5.72;3.85;;;;;;;;;;6273002;22;20098;-74
2022/11/03 14:03:37;;;;;;;9.27;6.07;;;;;;;;;;6300912;22;20046;-74
2022/11/03 14:06:03;;;;;;;5.93;4.05;;;;;;;;;;6301831;22;20022;-74
2022/11/03 14:08:29;;;;;;;6.05;4.80;;;;;;;;;;6301171;22;20014;-75
2022/11/03 14:10:55;;;;;;;5.75;5.00;;;;;;;;;;6302041;22;20626;-74
2022/11/03 14:13:21;;;;;;;7.03;4.65;;;;;;;;;;6302894;22;20015;-75
2022/11/03 14:15:47;;;;;;;4.18;3.88;;;;;;;;;;6280958;22;20089;-75
2022/11/03 14:18:13;;;;;;;4.72;4.32;;;;;;;;;;6281751;22;20063;-73
2022/11/03 14:20:39;;;;;;;4.18;3.80;;;;;;;;;;6310275;22;20038;-74
2022/11/03 14:23:05;;;;;;;4.70;4.15;;;;;;;;;;6285562;22;20436;-75
2022/11/03 14:25:31;;;;;;;3.97;3.67;;;;;;;;;;6311656;22;20118;-76
2022/11/03 14:27:56;;;;;;;3.42;3.22;;;;;;;;;;6301510;22;20065;-74
2022/11/03 14:30:22;;;;;;;3.55;3.30;;;;;;;;;;6301623;22;20015;-76
2022/11/03 14:32:48;;;;;;;3.60;3.40;;;;;;;;;;6300692;22;20262;-75
2022/11/03 14:35:14;;;;;;;4.32;3.95;;;;;;;;;;6273800;22;20015;-74
2022/11/03 14:37:40;;;;;;;4.88;3.85;;;;;;;;;;6300787;22;20018;-74
2022/11/03 14:40:06;;;;;;;3.75;3.50;;;;;;;;;;6273483;22;20018;-75
2022/11/03 14:42:32;;;;;;;4.53;4.13;;;;;;;;;;6273104;22;20103;-75
2022/11/03 14:44:58;;;;;;;4.35;4.10;;;;;;;;;;6301139;22;20109;-73
2022/11/03 14:47:24;;;;;;;4.35;4.05;;;;;;;;;;6301305;22;20062;-73
2022/11/03 14:49:50;;;;;;;9.00;4.88;;;;;;;;;;6248802;22;20502;-75
2022/11/03 14:52:16;;;;;;;12.60;4.55;;;;;;;;;;6247310;22;20025;-74
2022/11/03 14:54:42;;;;;;;5.72;4.10;;;;;;;;;;6300471;22;20422;-73
2022/11/03 14:57:08;;;;;;;5.03;3.65;;;;;;;;;;6300048;22;20038;-73
2022/11/03 14:59:34;;;;;;;5.30;3.75;;;;;;;;;;6273401;22;20480;-73
2022/11/03 15:02:00;;;;;;;5.45;4.60;;;;;;;;;;6248257;22;20085;-73
2022/11/03 15:04:26;;;;;;;4.05;3.85;;;;;;;;;;6246777;22;20483;-73
2022/11/03 15:06:53;;;;;;;3.97;3.78;;;;;;;;;;6300512;22;20118;-73